Ana Sayfa
METAR-TAF:

METAR-TAF

Havaalanları :

Kupang, Endonezya

Enlem: 10-10-17S, Boylam: 123-40-16E, yükseklik: 102 m

METAR: eksik

Saat: 19:31 (12:31 UTC)

Tahmin

Rapor saat 11:00 UTC de 1 saat ve 31 dakika önce yapıldı.
Ayın 30'si saat 12 UTC'den ayın 31'si saat 12 UTC'ye kadar geçerli Tahmin
Rüzgar doğu/güneydoğudan 5 kt
Görüş mesafesi: 8000 m
1800 ft yükseklikte az bulutlu
Dönüşüyor
ayın 31'si saat 01 UTC'den ayın 31'si saat 03 UTC'ye kadar
Rüzgar kuzey/kuzeybatıdan 15 kt
Olasılık 30% :
Geçici
ayın 31'si saat 05 UTC'den ayın 31'si saat 09 UTC'ye kadar
Görüş mesafesi: 5000 m
1700 ft yükseklikte az bulutlu, Kümülonimbus.
gök gürültülü fırtına, hafif yağmur
Dönüşüyor
ayın 31'si saat 09 UTC'den ayın 31'si saat 10 UTC'ye kadar
Rüzgar doğu/güneydoğudan 5 kt

TAF: WATT 301100Z 3012/3112 12005KT 8000 FEW018 BECMG 3101/3103 33015KT PROB30 TEMPO 3105/3109 5000 -TSRA FEW017CB BECMG 3109/3110 11005KT

4.000'den fazla havaalanı için hava durumu gözlemleri ve tahminleri (METAR ve TAF raporları).

Kullanılabilir istasyonlar harita üzerinde sarı ve kırmızı noktalarla gösterilir.

İstasyonun adını görmek için fareyi noktanın üzerinde gezdirin.

Sonrasında hava gözlem ve tahminlerini görmek için tıklayın.

Haritayı değiştirmek için: yaklaştırmak için siyah artı işaretli yeşil düğmeye ve uzaklaştırmak için de eksi işaretli düğmeye hızla tıklayın; bitişik haritalar için yeşil okları kullanın.


METAR-TAF: